Time;durP1;ratioP1;P1;durP2;ratioP2;P2;SDS_P1;SDS_P2;PMS_P1;PMS_P2;Temp;Humidity;BMP_temperature;BMP_pressure;BME280_temperature;BME280_humidity;BME280_pressure;Samples;Min_cycle;Max_cycle;Signal;HPM_P1;HPM_P2
2023/06/04 00:00:16;;;;;;;18.70;17.80;;;11.50;81.60;;;;;;2611357;54;20130;-79
2023/06/04 00:06:04;;;;;;;17.20;16.37;;;11.40;89.20;;;;;;2610910;54;20499;-79
2023/06/04 00:11:52;;;;;;;15.93;15.23;;;11.50;84.10;;;;;;2612359;54;20158;-78
2023/06/04 00:21:02;;;;;;;19.60;18.50;;;11.20;94.70;;;;;;2610472;54;20379;-74
2023/06/04 00:26:50;;;;;;;19.70;18.70;;;11.10;99.10;;;;;;2610419;54;20165;-74
2023/06/04 00:29:53;;;;;;;20.43;19.30;;;11.10;98.60;;;;;;2609777;54;20427;-74
2023/06/04 00:32:19;;;;;;;17.93;16.83;;;10.90;99.90;;;;;;2610532;54;20198;-73
2023/06/04 00:38:08;;;;;;;17.83;16.93;;;10.90;99.90;;;;;;2610586;54;20395;-74
2023/06/04 00:43:56;;;;;;;17.00;16.10;;;11.10;98.10;;;;;;2610148;54;20756;-72
2023/06/04 00:49:43;;;;;;;17.50;16.60;;;11.10;97.10;;;;;;2610402;54;20196;-74
2023/06/04 00:55:31;;;;;;;16.77;15.97;;;11.20;99.90;;;;;;2614276;54;20637;-74
2023/06/04 01:01:24;;;;;;;15.77;14.87;;;11.30;99.90;;;;;;2615545;46;20223;-74
2023/06/04 01:07:14;;;;;;;14.63;13.93;;;11.10;99.90;;;;;;2615757;54;20469;-74
2023/06/04 01:13:01;;;;;;;15.53;14.73;;;11.10;99.90;;;;;;2614250;54;20410;-73
2023/06/04 01:18:51;;;;;;;15.50;14.77;;;10.90;99.90;;;;;;2615655;54;20206;-74
2023/06/04 01:24:41;;;;;;;16.00;15.10;;;10.90;99.90;;;;;;2614709;54;20447;-74
2023/06/04 01:30:42;;;;;;;15.03;14.13;;;10.90;99.90;;;;;;2613974;54;20599;-73
2023/06/04 01:36:29;;;;;;;14.77;13.97;;;10.70;99.90;;;;;;2613375;54;20412;-73
2023/06/04 01:42:16;;;;;;;14.77;13.97;;;10.80;99.90;;;;;;2612357;54;20399;-73
2023/06/04 01:51:25;;;;;;;14.17;13.47;;;10.70;99.90;;;;;;2612703;54;20395;-74
2023/06/04 01:57:13;;;;;;;13.07;12.47;;;10.60;99.90;;;;;;2612768;54;20134;-73
2023/06/04 02:03:00;;;;;;;15.27;14.00;;;10.80;99.90;;;;;;2611984;39;20648;-74
2023/06/04 02:08:48;;;;;;;13.30;12.50;;;10.80;99.90;;;;;;2612339;54;20134;-74
2023/06/04 02:14:36;;;;;;;13.73;12.93;;;10.60;99.90;;;;;;2612429;54;20122;-74
2023/06/04 02:20:26;;;;;;;12.77;12.03;;;10.60;99.90;;;;;;2614567;54;20399;-74
2023/06/04 02:26:14;;;;;;;12.70;12.10;;;10.50;99.90;;;;;;2614437;54;20411;-73
2023/06/04 02:32:03;;;;;;;12.07;11.40;;;10.40;99.90;;;;;;2614847;54;20528;-74
2023/06/04 02:37:51;;;;;;;12.77;11.87;;;10.50;99.90;;;;;;2614571;54;20395;-69
2023/06/04 02:43:38;;;;;;;11.93;11.30;;;10.40;99.90;;;;;;2614462;54;20134;-70
2023/06/04 02:49:26;;;;;;;12.40;11.60;;;10.10;99.90;;;;;;2614984;39;20714;-70
2023/06/04 02:55:14;;;;;;;10.73;10.27;;;9.80;99.90;;;;;;2613552;54;20146;-69
2023/06/04 03:01:01;;;;;;;12.17;11.43;;;9.40;99.90;;;;;;2615091;54;20196;-69
2023/06/04 03:06:57;;;;;;;13.03;12.23;;;9.30;99.90;;;;;;2615485;54;20651;-70
2023/06/04 03:12:44;;;;;;;12.60;11.70;;;9.10;99.90;;;;;;2614010;54;20427;-70
2023/06/04 03:21:53;;;;;;;11.97;11.23;;;8.90;99.90;;;;;;2614100;54;20378;-71
2023/06/04 03:27:40;;;;;;;11.20;10.33;;;8.90;99.90;;;;;;2613266;39;21260;-70
2023/06/04 03:33:27;;;;;;;12.67;11.90;;;8.80;99.90;;;;;;2613427;39;20789;-71
2023/06/04 03:39:15;;;;;;;12.57;11.33;;;8.70;99.90;;;;;;2612806;54;20130;-70
2023/06/04 03:45:03;;;;;;;14.93;13.60;;;8.70;99.90;;;;;;2614853;54;20170;-70
2023/06/04 03:50:50;;;;;;;13.80;11.90;;;8.80;99.90;;;;;;2613657;54;20391;-69
2023/06/04 03:56:39;;;;;;;12.00;11.30;;;8.80;99.90;;;;;;2613965;54;20367;-68
2023/06/04 04:02:26;;;;;;;13.10;12.10;;;8.90;99.90;;;;;;2614322;54;20439;-71
2023/06/04 04:08:16;;;;;;;11.07;10.17;;;9.00;99.90;;;;;;2612730;54;20141;-70
2023/06/04 04:14:03;;;;;;;12.10;11.07;;;9.30;99.90;;;;;;2612183;54;20367;-71
2023/06/04 04:17:02;;;;;;;10.13;9.30;;;9.50;99.90;;;;;;2613077;54;20419;-70
2023/06/04 04:19:28;;;;;;;10.63;10.03;;;9.70;99.90;;;;;;2607608;54;20178;-70
2023/06/04 04:25:16;;;;;;;10.13;9.53;;;10.00;99.90;;;;;;2610954;54;20523;-70
2023/06/04 04:31:04;;;;;;;10.00;9.50;;;10.30;99.90;;;;;;2611423;54;20672;-70
2023/06/04 04:36:52;;;;;;;10.83;10.20;;;10.50;99.90;;;;;;2610007;54;20155;-69
2023/06/04 04:42:41;;;;;;;11.93;10.63;;;10.90;99.90;;;;;;2610439;39;20805;-70
2023/06/04 04:48:29;;;;;;;12.00;11.30;;;11.30;99.90;;;;;;2608596;54;20443;-70
2023/06/04 04:54:17;;;;;;;12.00;11.30;;;11.70;99.90;;;;;;2609686;54;20230;-70
2023/06/04 05:00:07;;;;;;;11.90;11.30;;;12.10;99.90;;;;;;2609430;54;20146;-70
2023/06/04 05:05:55;;;;;;;14.10;13.23;;;12.60;99.90;;;;;;2611713;39;20736;-70
2023/06/04 05:11:43;;;;;;;13.93;13.23;;;13.00;99.90;;;;;;2611228;54;20163;-71
2023/06/04 05:21:30;;;;;;;15.00;14.10;;;13.60;99.90;;;;;;2614092;54;20399;-69
2023/06/04 05:27:17;;;;;;;13.97;13.37;;;14.40;99.90;;;;;;2610354;54;20411;-69
2023/06/04 05:33:05;;;;;;;14.97;14.17;;;14.10;99.90;;;;;;2611494;46;20138;-70
2023/06/04 05:38:57;;;;;;;14.77;14.00;;;14.30;99.90;;;;;;2610135;39;20498;-70
2023/06/04 05:44:45;;;;;;;14.80;14.00;;;14.40;99.90;;;;;;2611125;54;20628;-71
2023/06/04 05:50:33;;;;;;;15.80;15.00;;;15.00;96.30;;;;;;2610021;54;20354;-70
2023/06/04 05:56:21;;;;;;;14.53;13.83;;;15.70;65.40;;;;;;2611621;54;20146;-71
2023/06/04 06:02:09;;;;;;;15.00;14.20;;;16.00;46.40;;;;;;2610997;39;20847;-70
2023/06/04 06:07:57;;;;;;;14.90;13.97;;;16.10;44.70;;;;;;2610435;54;20147;-71
2023/06/04 06:13:44;;;;;;;15.53;14.83;;;16.40;36.10;;;;;;2610939;54;20247;-70
2023/06/04 06:17:02;;;;;;;15.90;15.10;;;16.30;31.80;;;;;;2610960;54;20396;-71
2023/06/04 06:19:28;;;;;;;15.73;15.00;;;16.60;33.90;;;;;;2611583;54;20166;-71
2023/06/04 06:25:16;;;;;;;16.20;15.40;;;16.50;30.20;;;;;;2611214;39;20665;-77
2023/06/04 06:31:05;;;;;;;16.10;15.20;;;17.20;28.70;;;;;;2611685;54;20188;-80
2023/06/04 06:36:53;;;;;;;16.13;15.33;;;17.10;26.40;;;;;;2607467;54;20376;-84
2023/06/04 06:42:42;;;;;;;18.20;17.10;;;17.60;25.00;;;;;;2611226;54;20130;-76
2023/06/04 06:48:30;;;;;;;17.90;16.90;;;17.90;23.00;;;;;;2613402;54;20434;-76
2023/06/04 06:54:21;;;;;;;16.30;15.20;;;17.70;22.40;;;;;;2613888;39;20512;-73
2023/06/04 07:00:10;;;;;;;16.90;16.00;;;18.40;19.90;;;;;;2612554;54;20367;-75
2023/06/04 07:05:58;;;;;;;16.50;15.60;;;18.60;16.90;;;;;;2612401;54;20496;-76
2023/06/04 07:11:46;;;;;;;16.43;15.63;;;19.20;16.40;;;;;;2611739;54;20477;-75
2023/06/04 07:21:30;;;;;;;15.20;14.50;;;19.50;16.70;;;;;;2615216;39;20782;-75
2023/06/04 07:27:19;;;;;;;16.10;14.70;;;19.90;12.00;;;;;;2610738;54;20922;-76
2023/06/04 07:33:07;;;;;;;15.50;14.60;;;20.10;10.60;;;;;;2614315;54;20451;-76
2023/06/04 07:38:54;;;;;;;15.37;14.60;;;20.50;10.50;;;;;;2614464;54;20688;-75
2023/06/04 07:44:42;;;;;;;15.60;14.80;;;20.40;9.40;;;;;;2614435;46;20680;-76
2023/06/04 07:50:30;;;;;;;14.00;13.30;;;20.90;6.00;;;;;;2614988;54;20134;-75
2023/06/04 07:56:18;;;;;;;14.47;13.87;;;21.20;5.70;;;;;;2612524;54;20150;-75
2023/06/04 08:02:05;;;;;;;15.60;14.33;;;21.20;3.70;;;;;;2613520;39;20687;-76
2023/06/04 08:07:53;;;;;;;14.80;13.73;;;21.80;1.00;;;;;;2615297;54;20126;-76
2023/06/04 08:13:41;;;;;;;14.30;13.43;;;21.70;1.00;;;;;;2615507;54;20146;-77
2023/06/04 08:17:02;;;;;;;14.20;13.37;;;21.80;1.00;;;;;;2611630;54;20418;-77
2023/06/04 08:19:28;;;;;;;14.57;13.67;;;21.80;1.00;;;;;;2615094;54;20430;-76
2023/06/04 08:25:16;;;;;;;13.93;13.23;;;22.00;2.10;;;;;;2615228;54;20123;-76
2023/06/04 08:31:03;;;;;;;13.90;13.00;;;22.10;1.00;;;;;;2614035;54;20174;-76
2023/06/04 08:36:51;;;;;;;14.33;13.63;;;22.90;2.20;;;;;;2614967;54;20151;-75
2023/06/04 08:42:46;;;;;;;13.63;12.73;;;22.50;1.00;;;;;;2611480;54;20254;-76
2023/06/04 08:48:35;;;;;;;13.60;12.50;;;23.00;1.00;;;;;;2613156;54;20479;-77
2023/06/04 08:54:24;;;;;;;14.20;13.40;;;23.10;1.00;;;;;;2612602;54;20399;-77
2023/06/04 09:00:12;;;;;;;14.73;13.40;;;23.30;1.00;;;;;;2613730;54;20538;-76
2023/06/04 09:06:00;;;;;;;14.93;13.83;;;23.20;1.00;;;;;;2612142;54;20455;-76
2023/06/04 09:11:53;;;;;;;14.50;13.60;;;23.50;1.00;;;;;;2614126;54;20430;-77
2023/06/04 09:21:32;;;;;;;15.50;14.60;;;24.10;1.00;;;;;;2610062;54;20388;-76
2023/06/04 09:27:22;;;;;;;14.40;13.50;;;23.70;1.00;;;;;;2610442;54;20455;-76
2023/06/04 09:30:09;;;;;;;14.37;13.20;;;23.00;1.00;;;;;;2610580;39;20815;-76
2023/06/04 09:32:35;;;;;;;13.33;12.60;;;23.50;1.00;;;;;;2608631;54;20427;-77
2023/06/04 09:38:23;;;;;;;14.07;13.27;;;24.60;1.00;;;;;;2611411;54;20443;-76
2023/06/04 09:44:11;;;;;;;13.40;12.50;;;24.20;1.00;;;;;;2609742;54;20403;-74
2023/06/04 09:49:59;;;;;;;13.23;12.43;;;24.10;1.00;;;;;;2610582;54;20423;-76
2023/06/04 10:02:22;;;;;;;12.93;12.03;;;24.30;1.00;;;;;;2610549;54;20427;-73
2023/06/04 10:08:11;;;;;;;13.20;12.40;;;24.60;1.00;;;;;;2614584;54;21082;-74
2023/06/04 10:14:02;;;;;;;12.93;12.23;;;23.90;1.00;;;;;;2612436;54;20391;-74
2023/06/04 10:17:04;;;;;;;13.20;12.40;;;24.10;1.00;;;;;;2609735;54;20435;-74
2023/06/04 10:19:31;;;;;;;13.17;12.47;;;24.70;1.00;;;;;;2613213;54;20422;-75
2023/06/04 10:25:20;;;;;;;13.20;12.50;;;24.60;1.00;;;;;;2613988;54;20403;-80
2023/06/04 10:31:11;;;;;;;13.40;12.50;;;24.00;1.00;;;;;;2615535;54;20496;-79
2023/06/04 10:36:59;;;;;;;13.33;12.43;;;24.30;1.00;;;;;;2615176;54;20975;-80
2023/06/04 10:42:47;;;;;;;14.13;12.77;;;24.90;1.00;;;;;;2615487;39;20775;-78
2023/06/04 10:55:10;;;;;;;13.17;12.27;;;25.00;1.00;;;;;;2615126;54;20403;-81
2023/06/04 11:00:58;;;;;;;12.83;12.00;;;24.90;1.00;;;;;;2613237;54;20423;-81
2023/06/04 11:06:46;;;;;;;14.20;13.30;;;24.60;1.00;;;;;;2614714;39;20552;-81
2023/06/04 11:22:29;;;;;;;13.10;12.40;;;25.00;1.00;;;;;;2615333;54;20411;-81
2023/06/04 11:28:21;;;;;;;13.03;12.23;;;25.40;1.00;;;;;;2611575;54;20395;-81
2023/06/04 11:34:11;;;;;;;13.33;12.57;;;26.00;1.00;;;;;;2613048;54;20403;-81
2023/06/04 11:40:05;;;;;;;12.87;12.17;;;25.80;1.00;;;;;;2614798;54;20418;-81
2023/06/04 11:45:53;;;;;;;13.10;12.40;;;25.60;1.00;;;;;;2615475;54;20379;-81
2023/06/04 11:58:17;;;;;;;13.30;12.33;;;26.30;1.00;;;;;;2616805;54;20446;-82
2023/06/04 12:10:21;;;;;;;11.50;10.83;;;26.70;1.00;;;;;;2614530;54;20407;-80
2023/06/04 12:16:15;;;;;;;12.23;11.53;;;26.10;1.00;;;;;;2612874;54;20423;-80
2023/06/04 12:22:04;;;;;;;12.70;11.83;;;26.50;1.00;;;;;;2612766;54;22370;-80
2023/06/04 12:27:52;;;;;;;13.00;11.97;;;26.40;1.00;;;;;;2612947;54;20367;-81
2023/06/04 12:33:41;;;;;;;12.23;11.43;;;25.70;1.00;;;;;;2614917;54;20209;-80
2023/06/04 12:39:29;;;;;;;12.10;11.40;;;26.40;1.00;;;;;;2613325;54;20375;-80
2023/06/04 12:45:17;;;;;;;12.83;11.93;;;25.00;1.00;;;;;;2615802;54;20433;-79
2023/06/04 12:51:08;;;;;;;11.67;11.07;;;26.40;1.00;;;;;;2616028;54;20129;-79
2023/06/04 12:56:56;;;;;;;11.77;11.17;;;26.50;1.00;;;;;;2615715;54;20408;-80
2023/06/04 13:02:45;;;;;;;12.50;11.50;;;26.90;1.00;;;;;;2617028;31;20814;-81
2023/06/04 13:08:33;;;;;;;12.70;11.90;;;26.60;1.00;;;;;;2615658;54;20126;-80
2023/06/04 13:14:21;;;;;;;12.40;11.60;;;26.70;1.00;;;;;;2616310;54;20391;-80
2023/06/04 13:17:20;;;;;;;12.23;11.50;;;26.20;1.00;;;;;;2614268;31;20859;-78
2023/06/04 13:19:47;;;;;;;11.63;10.93;;;26.30;1.00;;;;;;2614615;54;20245;-80
2023/06/04 13:25:35;;;;;;;11.50;10.80;;;26.80;1.00;;;;;;2614216;54;20403;-80
2023/06/04 13:31:22;;;;;;;11.73;11.10;;;26.90;1.00;;;;;;2614982;54;20130;-81
2023/06/04 13:37:12;;;;;;;11.47;10.87;;;27.20;1.00;;;;;;2614733;54;20174;-80
2023/06/04 13:43:00;;;;;;;12.77;12.07;;;27.20;1.00;;;;;;2614430;46;20415;-80
2023/06/04 13:48:48;;;;;;;12.40;11.70;;;27.10;1.00;;;;;;2615641;54;20151;-79
2023/06/04 13:54:35;;;;;;;11.80;11.20;;;26.80;1.00;;;;;;2615379;54;20214;-78
2023/06/04 14:00:23;;;;;;;11.87;11.20;;;26.80;1.00;;;;;;2613722;54;20122;-80
2023/06/04 14:06:11;;;;;;;11.70;11.00;;;27.60;1.00;;;;;;2614768;54;20411;-79
2023/06/04 14:11:59;;;;;;;20.73;12.17;;;26.40;1.00;;;;;;2612594;54;20150;-80
2023/06/04 14:21:50;;;;;;;13.30;12.50;;;26.00;1.00;;;;;;2610502;54;20387;-80
2023/06/04 14:27:38;;;;;;;11.87;11.10;;;26.20;1.00;;;;;;2613643;54;20408;-79
2023/06/04 14:33:26;;;;;;;12.87;11.70;;;26.20;1.00;;;;;;2610725;54;20142;-79
2023/06/04 14:39:13;;;;;;;12.07;11.37;;;26.40;1.00;;;;;;2612163;54;20130;-79
2023/06/04 14:45:02;;;;;;;13.10;12.30;;;26.20;1.00;;;;;;2610843;54;20150;-78
2023/06/04 14:50:53;;;;;;;12.30;11.30;;;25.90;1.00;;;;;;2612103;54;20366;-80
2023/06/04 14:56:41;;;;;;;12.40;11.60;;;26.20;1.00;;;;;;2610957;54;20925;-72
2023/06/04 15:02:29;;;;;;;12.63;11.63;;;26.70;1.00;;;;;;2615264;39;20533;-81
2023/06/04 15:08:17;;;;;;;12.90;12.10;;;25.70;1.00;;;;;;2615816;39;20752;-80
2023/06/04 15:14:04;;;;;;;12.00;11.30;;;26.00;1.00;;;;;;2611838;54;20742;-81
2023/06/04 15:17:21;;;;;;;12.10;11.40;;;25.70;1.00;;;;;;2611110;54;20415;-82
2023/06/04 15:19:47;;;;;;;12.17;11.47;;;26.20;1.00;;;;;;2611859;47;20167;-79
2023/06/04 15:25:34;;;;;;;12.60;11.80;;;25.40;1.00;;;;;;2614096;54;20859;-78
2023/06/04 15:31:22;;;;;;;13.63;12.63;;;25.50;1.00;;;;;;2613555;54;20166;-77
2023/06/04 15:37:11;;;;;;;12.63;11.77;;;25.70;1.00;;;;;;2612080;54;20419;-79
2023/06/04 15:42:58;;;;;;;13.17;11.90;;;26.20;1.00;;;;;;2613952;54;20170;-79
2023/06/04 15:48:46;;;;;;;12.47;11.37;;;25.60;1.00;;;;;;2614303;54;20154;-78
2023/06/04 15:54:35;;;;;;;13.40;12.50;;;25.60;1.00;;;;;;2612601;54;20127;-78
2023/06/04 16:00:23;;;;;;;13.73;12.80;;;26.10;1.00;;;;;;2612829;54;20499;-80
2023/06/04 16:06:11;;;;;;;13.10;12.40;;;25.90;1.00;;;;;;2614073;39;20516;-79
2023/06/04 16:11:59;;;;;;;13.87;13.17;;;26.50;1.00;;;;;;2611185;54;20123;-80
2023/06/04 16:21:49;;;;;;;15.13;14.33;;;26.50;1.00;;;;;;2614111;54;20418;-80
2023/06/04 16:27:37;;;;;;;22.37;20.90;;;26.10;1.00;;;;;;2612291;54;21907;-80
2023/06/04 16:33:25;;;;;;;23.70;22.37;;;25.70;1.00;;;;;;2613559;54;20134;-80
2023/06/04 16:39:13;;;;;;;36.77;34.13;;;25.40;1.00;;;;;;2614108;54;20146;-80
2023/06/04 16:45:01;;;;;;;30.73;28.63;;;25.20;1.00;;;;;;2611328;54;20134;-81
2023/06/04 16:50:49;;;;;;;17.30;16.20;;;24.80;1.00;;;;;;2609903;54;20408;-80
2023/06/04 16:56:37;;;;;;;14.50;13.80;;;24.30;1.00;;;;;;2613613;54;20644;-80
2023/06/04 17:02:27;;;;;;;15.00;14.20;;;24.70;1.00;;;;;;2611467;39;20534;-80
2023/06/04 17:08:14;;;;;;;16.63;15.93;;;24.40;1.00;;;;;;2612373;54;20427;-80
2023/06/04 17:14:02;;;;;;;17.87;16.50;;;24.40;1.00;;;;;;2611759;54;20131;-79
2023/06/04 17:17:18;;;;;;;16.50;15.80;;;24.10;1.00;;;;;;2613182;54;20411;-79
2023/06/04 17:19:46;;;;;;;17.20;16.40;;;24.00;1.00;;;;;;2613140;54;20163;-79
2023/06/04 17:25:34;;;;;;;17.93;17.13;;;23.70;1.00;;;;;;2612396;39;20768;-78
2023/06/04 17:31:22;;;;;;;17.20;16.50;;;23.40;1.00;;;;;;2614393;54;20130;-78
2023/06/04 17:37:10;;;;;;;16.70;15.90;;;23.30;1.00;;;;;;2615848;31;20892;-79
2023/06/04 17:42:58;;;;;;;15.90;15.07;;;23.10;1.00;;;;;;2611113;54;20154;-79
2023/06/04 17:48:45;;;;;;;16.50;15.80;;;22.60;1.00;;;;;;2615174;54;20154;-79
2023/06/04 17:54:33;;;;;;;15.73;15.13;;;22.50;1.00;;;;;;2614434;54;20253;-79
2023/06/04 18:00:22;;;;;;;15.67;15.00;;;22.50;1.00;;;;;;2614513;54;20961;-79
2023/06/04 18:06:09;;;;;;;15.47;14.87;;;22.30;1.00;;;;;;2614644;54;20423;-79
2023/06/04 18:11:57;;;;;;;16.43;15.73;;;22.10;1.00;;;;;;2613801;54;20186;-79
2023/06/04 18:27:58;;;;;;;17.07;16.30;;;21.70;1.00;;;;;;2610680;54;20522;-77
2023/06/04 18:33:52;;;;;;;18.23;16.80;;;21.60;1.00;;;;;;2609865;54;20416;-78
2023/06/04 18:39:40;;;;;;;16.57;15.87;;;21.40;1.00;;;;;;2613478;54;20418;-78
2023/06/04 18:45:29;;;;;;;17.47;16.67;;;21.30;1.00;;;;;;2612797;54;20223;-79
2023/06/04 18:51:16;;;;;;;17.27;16.47;;;21.10;1.00;;;;;;2613268;54;20418;-78
2023/06/04 18:57:04;;;;;;;17.30;16.60;;;21.10;1.00;;;;;;2612332;54;20668;-79
2023/06/04 19:02:51;;;;;;;18.43;17.13;;;20.90;1.00;;;;;;2613694;54;20883;-79
2023/06/04 19:08:39;;;;;;;17.20;16.50;;;20.70;1.00;;;;;;2612597;54;20134;-80
2023/06/04 19:14:27;;;;;;;17.30;16.60;;;20.40;1.00;;;;;;2613242;54;20134;-78
2023/06/04 19:17:19;;;;;;;16.77;16.07;;;20.30;1.00;;;;;;2613378;47;20519;-79
2023/06/04 19:23:37;;;;;;;16.97;16.27;;;20.30;1.00;;;;;;2613609;54;20411;-78
2023/06/04 19:29:25;;;;;;;16.90;16.10;;;20.10;1.00;;;;;;2614060;54;20555;-78
2023/06/04 19:35:12;;;;;;;17.53;16.70;;;19.90;1.00;;;;;;2614333;54;20652;-77
2023/06/04 19:41:02;;;;;;;17.70;16.80;;;19.70;1.00;;;;;;2613965;54;20202;-78
2023/06/04 19:46:51;;;;;;;17.10;16.30;;;19.60;1.00;;;;;;2613804;54;20492;-78
2023/06/04 19:52:39;;;;;;;16.53;15.80;;;19.30;1.00;;;;;;2612432;54;20439;-77
2023/06/04 19:58:27;;;;;;;18.13;17.23;;;19.10;1.00;;;;;;2612030;54;20134;-78
2023/06/04 20:04:15;;;;;;;17.10;16.30;;;19.00;1.00;;;;;;2613920;39;20634;-78
2023/06/04 20:10:03;;;;;;;16.80;15.90;;;18.70;1.00;;;;;;2613086;54;20122;-78
2023/06/04 20:15:51;;;;;;;17.00;16.20;;;18.20;1.00;;;;;;2613888;54;20387;-77
2023/06/04 20:19:06;;;;;;;17.17;16.37;;;18.10;1.00;;;;;;2612371;47;20427;-78
2023/06/04 20:21:32;;;;;;;16.73;16.00;;;17.90;1.00;;;;;;2611971;47;20170;-78
2023/06/04 20:27:20;;;;;;;16.10;15.40;;;17.60;1.30;;;;;;2613604;54;20138;-78
2023/06/04 20:33:08;;;;;;;17.23;16.43;;;17.40;1.90;;;;;;2614084;54;20134;-78
2023/06/04 20:38:56;;;;;;;17.33;16.30;;;17.30;3.30;;;;;;2613843;54;20130;-78
2023/06/04 20:44:45;;;;;;;17.63;16.50;;;17.00;6.50;;;;;;2613009;54;20392;-77
2023/06/04 20:50:32;;;;;;;16.87;16.10;;;17.10;5.60;;;;;;2614800;39;20771;-79
2023/06/04 20:56:21;;;;;;;16.90;16.10;;;17.20;4.00;;;;;;2611961;54;20259;-78
2023/06/04 21:02:08;;;;;;;16.30;15.50;;;17.10;4.60;;;;;;2612674;54;20123;-77
2023/06/04 21:04:54;;;;;;;16.20;15.43;;;17.00;5.60;;;;;;2612946;54;20435;-77
2023/06/04 21:07:19;;;;;;;16.00;15.20;;;17.00;6.70;;;;;;2610536;47;20466;-79
2023/06/04 21:13:07;;;;;;;16.70;16.00;;;16.80;8.60;;;;;;2613287;54;20154;-79
2023/06/04 21:18:55;;;;;;;16.83;16.13;;;16.70;10.20;;;;;;2612974;54;20201;-78
2023/06/04 21:24:45;;;;;;;16.50;15.73;;;16.50;11.90;;;;;;2611817;54;20166;-79
2023/06/04 21:30:32;;;;;;;16.93;16.23;;;16.10;17.10;;;;;;2614275;54;20403;-78
2023/06/04 21:36:20;;;;;;;16.30;15.60;;;15.90;20.00;;;;;;2612592;39;21817;-78
2023/06/04 21:42:08;;;;;;;16.97;16.27;;;15.80;26.00;;;;;;2613384;54;20127;-79
2023/06/04 21:47:56;;;;;;;17.07;16.27;;;15.80;23.40;;;;;;2611313;46;20403;-78
2023/06/04 21:53:44;;;;;;;16.93;16.03;;;16.10;23.20;;;;;;2612571;54;20166;-79
2023/06/04 21:59:32;;;;;;;17.50;16.63;;;16.30;26.40;;;;;;2612851;54;20390;-79
2023/06/04 22:05:20;;;;;;;16.80;16.07;;;16.50;36.10;;;;;;2612488;54;20130;-79
2023/06/04 22:11:08;;;;;;;16.00;15.30;;;16.60;53.10;;;;;;2613466;54;20151;-79
2023/06/04 22:16:56;;;;;;;16.90;15.70;;;16.40;77.50;;;;;;2614891;54;20658;-78
2023/06/04 22:26:06;;;;;;;16.80;16.00;;;16.10;99.90;;;;;;2614283;54;20455;-78
2023/06/04 22:31:54;;;;;;;15.50;14.63;;;16.10;99.90;;;;;;2614963;46;20161;-79
2023/06/04 22:37:43;;;;;;;15.67;14.90;;;16.00;99.90;;;;;;2612949;54;20699;-79
2023/06/04 22:43:30;;;;;;;15.70;14.60;;;15.80;99.90;;;;;;2613985;54;20387;-78
2023/06/04 22:49:18;;;;;;;15.43;14.33;;;15.60;99.90;;;;;;2614999;54;20680;-78
2023/06/04 22:55:08;;;;;;;13.90;13.17;;;15.60;99.90;;;;;;2615344;54;20153;-79
2023/06/04 23:00:55;;;;;;;13.57;12.80;;;15.40;99.90;;;;;;2614890;39;20766;-79
2023/06/04 23:06:45;;;;;;;14.27;13.20;;;15.40;99.90;;;;;;2613589;54;20190;-78
2023/06/04 23:12:33;;;;;;;14.20;13.50;;;15.20;99.90;;;;;;2615523;54;20499;-79
2023/06/04 23:18:21;;;;;;;13.77;12.87;;;15.10;99.90;;;;;;2615458;54;20403;-79
2023/06/04 23:21:36;;;;;;;13.67;12.87;;;15.00;99.90;;;;;;2614832;47;20440;-79
2023/06/04 23:24:02;;;;;;;13.17;12.30;;;15.00;99.90;;;;;;2614959;54;20410;-79
2023/06/04 23:29:52;;;;;;;12.80;12.00;;;15.00;99.90;;;;;;2615077;54;21022;-78
2023/06/04 23:35:39;;;;;;;12.93;12.13;;;15.00;99.90;;;;;;2615181;54;20423;-78
2023/06/04 23:41:27;;;;;;;13.30;12.50;;;14.80;99.90;;;;;;2614646;54;20134;-78
2023/06/04 23:47:15;;;;;;;13.00;12.30;;;14.50;99.90;;;;;;2615356;31;20633;-78
2023/06/04 23:53:04;;;;;;;12.03;11.33;;;14.30;99.90;;;;;;2614702;54;20392;-79
2023/06/04 23:58:52;;;;;;;12.53;11.73;;;14.30;99.90;;;;;;2614952;54;20394;-79
